LOWK

Klagenfurt Airport

Klagenfurt am Wörthersee, Austria
TAF LOWK 211715Z 2118/2218 VRB02KT 9999 FEW060 SCT140 TX24/2118Z TN15/2207Z TEMPO 2118/2122 VRB07KT -TSRA FEW050CB BKN060 TEMPO 2122/2209 35008KT 6000 SHRA FEW040CB BKN050 PROB30 TEMPO 2201/2206 VRB12G25KT 4000 TSRA SCT030CB BKN040 BECMG 2208/2210 09007KT TEMPO 2211/2217 06010KT
Issued Valid From Valid To
Jun-21 @ 17:15 UTC
(54 minutes ago)
Jun-21 @ 18:00 UTC
(9 minutes ago)
Jun-22 @ 18:00 UTC
(in 24 hours)
Jun-21 @ 18:00 to Jun-22 @ 08:00
TAF LOWK 211715Z 2118/2218 VRB02KT 9999 FEW060 SCT140 TX24/2118Z TN15/2207Z
Wind Visibility Clouds
Variable at 2 knots 10,000+ meters
  • Few at 6,000' AGL
  • Scattered at 14,000' AGL
Temporary Jun-21 @ 18:00 to Jun-21 @ 22:00
TEMPO 2118/2122 VRB07KT -TSRA FEW050CB BKN060
Wind Clouds Conditions
Variable at 7 knots
  • Few at 5,000' AGL
  • Broken at 6,000' AGL
  • Light Thunderstorm
  • Light Rain
Temporary Jun-21 @ 22:00 to Jun-22 @ 09:00
TEMPO 2122/2209 35008KT 6000 SHRA FEW040CB BKN050
Wind Visibility Clouds Conditions
350° at 8 knots 6,003 meters
  • Few at 4,000' AGL
  • Broken at 5,000' AGL
  • Rain
Temporary  (Probability 30%) Jun-22 @ 01:00 to Jun-22 @ 06:00
PROB30 TEMPO 2201/2206 VRB12G25KT 4000 TSRA SCT030CB BKN040
Wind Visibility Clouds Conditions
Variable at 12 knots
 Gusting to 25 knots
4,007 meters
  • Scattered at 3,000' AGL
  • Broken at 4,000' AGL
  • Thunderstorm
  • Rain
Becoming Jun-22 @ 08:00 to Jun-22 @ 18:00
BECMG 2208/2210 09007KT
Wind Visibility Clouds
90° at 7 knots 10,000+ meters
  • Few at 6,000' AGL
  • Scattered at 14,000' AGL
Temporary Jun-22 @ 11:00 to Jun-22 @ 17:00
TEMPO 2211/2217 06010KT
Wind
60° at 10 knots
TAF LOWK 211715Z 2118/2218 VRB02KT 9999 FEW060 SCT140 TX24/2118Z TN15/2207Z TEMPO 2118/2122 VRB07KT -TSRA FEW050CB BKN060 TEMPO 2122/2209 35008KT 6000 SHRA FEW040CB BKN050 PROB30 TEMPO 2201/2206 VRB12G25KT 4000 TSRA SCT030CB BKN040 BECMG 2208/2210 09007KT TEMPO 2211/2217 06010KT
Issued Jun-21 @ 17:15 UTC
(54 minutes ago)
Valid From Jun-21 @ 18:00 UTC
(9 minutes ago)
Valid To Jun-22 @ 18:00 UTC
(in 24 hours)
Jun-21 @ 18:00 - Jun-22 @ 08:00
Wind Visibility
Variable at 2 knots 10,000+ meters
Clouds
  • Few at 6,000' AGL
  • Scattered at 14,000' AGL
Temporary Jun-21 @ 18:00 - Jun-21 @ 22:00
Wind
Variable at 7 knots
Clouds
  • Few at 5,000' AGL
  • Broken at 6,000' AGL
Conditions
  • Light Thunderstorm
  • Light Rain
Temporary Jun-21 @ 22:00 - Jun-22 @ 09:00
Wind Visibility
350° at 8 knots 6,003 meters
Clouds
  • Few at 4,000' AGL
  • Broken at 5,000' AGL
Conditions
  • Rain
Probability 30% Temporary Jun-22 @ 01:00 - Jun-22 @ 06:00
Wind Visibility
Variable at 12 knots
 Gusting to 25 knots
4,007 meters
Clouds
  • Scattered at 3,000' AGL
  • Broken at 4,000' AGL
Conditions
  • Thunderstorm
  • Rain
Becoming Jun-22 @ 08:00 - Jun-22 @ 18:00
Wind Visibility
90° at 7 knots 10,000+ meters
Clouds
  • Few at 6,000' AGL
  • Scattered at 14,000' AGL
Temporary Jun-22 @ 11:00 - Jun-22 @ 17:00
Wind
60° at 10 knots